Time,TemperatureF,DewpointF,PressureIn,WindDirection,WindDirectionDegrees,WindSpeedMPH,WindSpeedGustMPH,Humidity,HourlyPrecipIn,Conditions,Clouds,dailyrainin,SoftwareType,DateUTC
2013-07-11 00:03:00,84.0,54.9,29.65,South,189,0.0,0.0,37,0.00,,,0.00,meteohub,2013-07-11 06:03:00,
2013-07-11 00:08:00,84.0,54.9,29.65,South,189,0.0,0.0,37,0.00,,,0.00,meteohub,2013-07-11 06:08:00,
2013-07-11 00:13:00,83.8,55.6,29.65,South,189,0.0,0.0,38,0.00,,,0.00,meteohub,2013-07-11 06:13:00,
2013-07-11 00:18:00,83.7,55.4,29.65,South,189,0.0,0.0,38,0.00,,,0.00,meteohub,2013-07-11 06:18:00,
2013-07-11 00:24:00,83.5,55.2,29.66,South,189,0.0,0.0,38,0.00,,,0.00,meteohub,2013-07-11 06:24:00,
2013-07-11 00:29:00,83.5,55.2,29.65,South,189,0.0,0.0,38,0.00,,,0.00,meteohub,2013-07-11 06:29:00,
2013-07-11 00:34:00,83.5,55.2,29.66,South,189,0.0,0.0,38,0.00,,,0.00,meteohub,2013-07-11 06:34:00,
2013-07-11 00:39:00,83.7,54.7,29.66,South,189,0.0,0.0,37,0.00,,,0.00,meteohub,2013-07-11 06:39:00,
2013-07-11 00:44:00,83.7,55.4,29.66,South,189,0.0,0.0,38,0.00,,,0.00,meteohub,2013-07-11 06:44:00,
2013-07-11 00:49:00,83.7,55.4,29.66,South,189,0.0,0.0,38,0.00,,,0.00,meteohub,2013-07-11 06:49:00,
2013-07-11 00:55:00,83.8,55.6,29.66,South,188,0.0,0.0,38,0.00,,,0.00,meteohub,2013-07-11 06:55:00,
2013-07-11 01:00:00,84.0,55.8,29.66,South,185,0.0,0.0,38,0.00,,,0.00,meteohub,2013-07-11 07:00:00,
2013-07-11 01:05:00,84.2,55.8,29.66,SSE,168,0.0,0.0,38,0.00,,,0.00,meteohub,2013-07-11 07:05:00,
2013-07-11 01:10:00,84.6,55.4,29.67,ESE,121,0.0,0.0,37,0.00,,,0.00,meteohub,2013-07-11 07:10:00,
2013-07-11 01:15:00,84.7,55.6,29.66,East,98,0.0,0.0,37,0.00,,,0.00,meteohub,2013-07-11 07:15:00,
2013-07-11 01:20:00,84.9,55.8,29.66,ESE,123,0.0,0.0,37,0.00,,,0.00,meteohub,2013-07-11 07:20:00,
2013-07-11 01:25:00,84.9,55.8,29.66,ESE,121,0.0,0.0,37,0.00,,,0.00,meteohub,2013-07-11 07:25:00,
2013-07-11 01:31:00,84.7,55.6,29.66,ESE,117,0.0,0.0,37,0.00,,,0.00,meteohub,2013-07-11 07:31:00,
2013-07-11 01:36:00,84.7,55.6,29.67,ESE,110,0.0,0.0,37,0.00,,,0.00,meteohub,2013-07-11 07:36:00,
2013-07-11 01:41:00,84.7,55.6,29.66,ESE,115,0.0,0.0,37,0.00,,,0.00,meteohub,2013-07-11 07:41:00,
2013-07-11 01:46:00,84.7,55.6,29.66,SE,125,0.0,0.0,37,0.00,,,0.00,meteohub,2013-07-11 07:46:00,
2013-07-11 01:51:00,84.6,55.4,29.66,ESE,115,0.0,0.0,37,0.00,,,0.00,meteohub,2013-07-11 07:51:00,
2013-07-11 01:56:00,84.6,56.1,29.66,SE,126,0.0,0.0,38,0.00,,,0.00,meteohub,2013-07-11 07:56:00,
2013-07-11 02:01:00,84.6,56.1,29.66,ESE,121,0.0,0.0,38,0.00,,,0.00,meteohub,2013-07-11 08:01:00,
2013-07-11 02:07:00,84.4,55.2,29.67,ESE,121,0.0,0.0,37,0.00,,,0.00,meteohub,2013-07-11 08:07:00,
2013-07-11 02:12:00,84.4,55.2,29.67,ESE,117,0.0,0.0,37,0.00,,,0.00,meteohub,2013-07-11 08:12:00,
2013-07-11 02:17:00,84.2,55.0,29.67,ESE,102,0.0,0.0,37,0.00,,,0.00,meteohub,2013-07-11 08:17:00,
2013-07-11 02:22:00,84.4,55.9,29.67,East,99,0.0,0.0,38,0.00,,,0.00,meteohub,2013-07-11 08:22:00,
2013-07-11 02:27:00,84.4,54.5,29.67,ESE,106,0.0,0.0,36,0.00,,,0.00,meteohub,2013-07-11 08:27:00,
2013-07-11 02:32:00,84.2,54.3,29.67,ESE,110,0.0,0.0,36,0.00,,,0.00,meteohub,2013-07-11 08:32:00,
2013-07-11 02:37:00,84.0,54.9,29.67,ESE,119,0.0,0.0,37,0.00,,,0.00,meteohub,2013-07-11 08:37:00,
2013-07-11 02:43:00,83.8,54.9,29.67,ESE,119,0.0,0.0,37,0.00,,,0.00,meteohub,2013-07-11 08:43:00,
2013-07-11 02:48:00,83.7,54.7,29.67,ESE,119,0.0,0.0,37,0.00,,,0.00,meteohub,2013-07-11 08:48:00,
2013-07-11 02:53:00,83.5,54.5,29.67,ESE,119,0.0,0.0,37,0.00,,,0.00,meteohub,2013-07-11 08:53:00,
2013-07-11 02:58:00,83.1,54.9,29.67,SE,127,0.0,0.0,38,0.00,,,0.00,meteohub,2013-07-11 08:58:00,
2013-07-11 03:03:00,82.9,54.7,29.67,South,178,0.0,0.0,38,0.00,,,0.00,meteohub,2013-07-11 09:03:00,
2013-07-11 03:08:00,82.8,55.2,29.68,SSE,168,0.0,0.0,39,0.00,,,0.00,meteohub,2013-07-11 09:08:00,
2013-07-11 03:13:00,82.6,55.0,29.67,SSE,168,0.0,0.0,39,0.00,,,0.00,meteohub,2013-07-11 09:13:00,
2013-07-11 03:19:00,82.2,54.9,29.67,SSE,168,0.0,0.0,39,0.00,,,0.00,meteohub,2013-07-11 09:19:00,
2013-07-11 03:24:00,82.0,55.4,29.68,SSE,168,0.0,0.0,40,0.00,,,0.00,meteohub,2013-07-11 09:24:00,
2013-07-11 03:29:00,81.9,55.9,29.68,SSE,168,0.0,0.0,41,0.00,,,0.00,meteohub,2013-07-11 09:29:00,
2013-07-11 03:34:00,81.5,55.6,29.68,SSE,168,0.0,0.0,41,0.00,,,0.00,meteohub,2013-07-11 09:34:00,
2013-07-11 03:39:00,81.3,56.1,29.68,SSE,168,0.0,0.0,42,0.00,,,0.00,meteohub,2013-07-11 09:39:00,
2013-07-11 03:44:00,81.1,56.5,29.68,SSE,168,0.0,0.0,43,0.00,,,0.00,meteohub,2013-07-11 09:44:00,
2013-07-11 03:49:00,80.8,56.1,29.68,SSE,168,0.0,0.0,43,0.00,,,0.00,meteohub,2013-07-11 09:49:00,
2013-07-11 03:55:00,80.4,56.5,29.68,SSE,168,0.0,0.0,44,0.00,,,0.00,meteohub,2013-07-11 09:55:00,
2013-07-11 04:00:00,80.2,57.0,29.68,SSE,168,0.0,0.0,45,0.00,,,0.00,meteohub,2013-07-11 10:00:00,
2013-07-11 04:05:00,80.1,56.1,29.68,SSE,168,0.0,0.0,44,0.00,,,0.00,meteohub,2013-07-11 10:05:00,
2013-07-11 04:10:00,80.1,56.8,29.68,SSE,168,0.0,0.0,45,0.00,,,0.00,meteohub,2013-07-11 10:10:00,
2013-07-11 04:15:00,79.9,56.7,29.68,SSE,168,0.0,0.0,45,0.00,,,0.00,meteohub,2013-07-11 10:15:00,
2013-07-11 04:20:00,79.7,57.0,29.68,SSE,168,0.0,0.0,46,0.00,,,0.00,meteohub,2013-07-11 10:20:00,
2013-07-11 04:25:00,79.3,56.8,29.68,SSE,168,0.0,0.0,46,0.00,,,0.00,meteohub,2013-07-11 10:25:00,
2013-07-11 04:31:00,79.3,57.4,29.67,SSE,168,0.0,0.0,47,0.00,,,0.00,meteohub,2013-07-11 10:31:00,
2013-07-11 04:36:00,79.2,56.7,29.67,SSE,168,0.0,0.0,46,0.00,,,0.00,meteohub,2013-07-11 10:36:00,
2013-07-11 04:41:00,79.0,57.0,29.67,SSE,168,0.0,0.0,47,0.00,,,0.00,meteohub,2013-07-11 10:41:00,
2013-07-11 04:46:00,79.0,57.0,29.68,SSE,168,0.0,0.0,47,0.00,,,0.00,meteohub,2013-07-11 10:46:00,
2013-07-11 04:51:00,78.6,57.2,29.68,SSE,168,0.0,0.0,48,0.00,,,0.00,meteohub,2013-07-11 10:51:00,
2013-07-11 04:56:00,78.4,57.7,29.68,SSE,168,0.0,0.0,49,0.00,,,0.00,meteohub,2013-07-11 10:56:00,
2013-07-11 05:02:00,78.3,57.6,29.68,SSE,168,0.0,0.0,49,0.00,,,0.00,meteohub,2013-07-11 11:02:00,
2013-07-11 05:07:00,78.1,57.9,29.68,SSE,168,0.0,0.0,50,0.00,,,0.00,meteohub,2013-07-11 11:07:00,
2013-07-11 05:12:00,77.7,58.1,29.68,SSE,168,0.0,0.0,51,0.00,,,0.00,meteohub,2013-07-11 11:12:00,
2013-07-11 05:17:00,77.4,57.2,29.68,SSE,168,0.0,0.0,50,0.00,,,0.00,meteohub,2013-07-11 11:17:00,
2013-07-11 05:22:00,77.2,57.0,29.69,SSE,168,0.0,0.0,50,0.00,,,0.00,meteohub,2013-07-11 11:22:00,
2013-07-11 05:27:00,76.8,56.8,29.68,SSE,168,0.0,0.0,50,0.00,,,0.00,meteohub,2013-07-11 11:27:00,
2013-07-11 05:32:00,76.6,57.2,29.68,SSE,168,0.0,0.0,51,0.00,,,0.00,meteohub,2013-07-11 11:32:00,
2013-07-11 05:37:00,76.6,57.2,29.68,SSE,168,0.0,0.0,51,0.00,,,0.00,meteohub,2013-07-11 11:37:00,
2013-07-11 05:43:00,76.6,57.7,29.68,SSE,168,0.0,0.0,52,0.00,,,0.00,meteohub,2013-07-11 11:43:00,
2013-07-11 05:48:00,76.5,57.0,29.69,SSE,168,0.0,0.0,51,0.00,,,0.00,meteohub,2013-07-11 11:48:00,
2013-07-11 05:53:00,76.5,57.0,29.69,SSE,168,0.0,0.0,51,0.00,,,0.00,meteohub,2013-07-11 11:53:00,
2013-07-11 05:58:00,76.6,57.2,29.70,SSE,168,0.0,0.0,51,0.00,,,0.00,meteohub,2013-07-11 11:58:00,
2013-07-11 06:03:00,76.6,57.2,29.71,SSE,168,0.0,0.0,51,0.00,,,0.00,meteohub,2013-07-11 12:03:00,
2013-07-11 06:08:00,76.5,57.0,29.71,SSE,168,0.0,0.0,51,0.00,,,0.00,meteohub,2013-07-11 12:08:00,
2013-07-11 06:13:00,76.5,57.6,29.71,South,169,0.0,0.0,52,0.00,,,0.00,meteohub,2013-07-11 12:13:00,
2013-07-11 06:19:00,76.5,57.6,29.71,South,169,0.0,0.0,52,0.00,,,0.00,meteohub,2013-07-11 12:19:00,
2013-07-11 06:24:00,76.5,58.6,29.71,South,175,0.0,0.0,54,0.00,,,0.00,meteohub,2013-07-11 12:24:00,
2013-07-11 06:29:00,76.5,60.6,29.71,SW,236,0.0,0.0,58,0.00,,,0.00,meteohub,2013-07-11 12:29:00,
2013-07-11 06:34:00,76.5,61.0,29.71,SW,225,0.0,0.0,59,0.00,,,0.00,meteohub,2013-07-11 12:34:00,
2013-07-11 06:39:00,76.3,61.0,29.71,West,281,0.0,0.0,59,0.00,,,0.00,meteohub,2013-07-11 12:39:00,
2013-07-11 06:44:00,76.3,61.0,29.72,West,275,0.0,0.0,59,0.00,,,0.00,meteohub,2013-07-11 12:44:00,
2013-07-11 06:50:00,76.1,60.8,29.71,WSW,248,0.0,0.0,59,0.00,,,0.00,meteohub,2013-07-11 12:50:00,
2013-07-11 06:57:00,75.7,60.8,29.72,South,178,0.0,0.0,60,0.00,,,0.00,meteohub,2013-07-11 12:57:00,
2013-07-11 07:02:00,75.6,60.6,29.72,ESE,109,0.0,0.0,60,0.00,,,0.00,meteohub,2013-07-11 13:02:00,
2013-07-11 07:07:00,75.6,61.2,29.72,ENE,74,0.0,0.0,61,0.00,,,0.00,meteohub,2013-07-11 13:07:00,
2013-07-11 07:12:00,75.6,61.2,29.72,WNW,284,0.0,0.0,61,0.00,,,0.00,meteohub,2013-07-11 13:12:00,
2013-07-11 07:17:00,75.6,61.2,29.72,West,266,0.0,0.0,61,0.00,,,0.00,meteohub,2013-07-11 13:17:00,
2013-07-11 07:22:00,75.7,60.8,29.72,WSW,252,0.0,0.0,60,0.00,,,0.00,meteohub,2013-07-11 13:22:00,
2013-07-11 07:27:00,75.9,61.5,29.72,West,260,0.0,0.0,61,0.00,,,0.00,meteohub,2013-07-11 13:27:00,
2013-07-11 07:34:00,75.9,61.5,29.72,West,260,0.0,0.0,61,0.00,,,0.00,meteohub,2013-07-11 13:34:00,
2013-07-11 07:39:00,76.3,61.9,29.72,NW,306,0.0,0.0,61,0.00,,,0.00,meteohub,2013-07-11 13:39:00,
2013-07-11 07:44:00,76.3,61.9,29.72,NW,320,0.0,0.0,61,0.00,,,0.00,meteohub,2013-07-11 13:44:00,
2013-07-11 07:51:00,76.3,62.2,29.72,WNW,300,0.0,0.0,62,0.00,,,0.00,meteohub,2013-07-11 13:51:00,
2013-07-11 07:57:00,76.5,62.1,29.72,West,281,0.0,0.0,61,0.00,,,0.00,meteohub,2013-07-11 13:57:00,
2013-07-11 08:05:00,76.6,62.2,29.72,NW,304,0.0,0.0,61,0.00,,,0.00,meteohub,2013-07-11 14:05:00,
2013-07-11 08:10:00,77.2,62.6,29.72,WNW,289,0.0,0.0,61,0.00,,,0.00,meteohub,2013-07-11 14:10:00,
2013-07-11 08:16:00,77.4,62.4,29.72,WNW,291,0.0,0.0,60,0.00,,,0.00,meteohub,2013-07-11 14:16:00,
2013-07-11 08:21:00,77.7,62.8,29.72,WNW,288,0.0,0.0,60,0.00,,,0.00,meteohub,2013-07-11 14:21:00,
2013-07-11 08:27:00,78.1,63.1,29.72,WNW,286,0.0,0.0,60,0.00,,,0.00,meteohub,2013-07-11 14:27:00,
2013-07-11 08:32:00,78.4,62.4,29.72,WNW,286,0.0,0.0,58,0.00,,,0.00,meteohub,2013-07-11 14:32:00,
2013-07-11 08:37:00,79.0,63.0,29.72,NW,306,0.0,0.0,58,0.00,,,0.00,meteohub,2013-07-11 14:37:00,
2013-07-11 08:42:00,79.2,62.6,29.72,NW,305,0.0,0.0,57,0.00,,,0.00,meteohub,2013-07-11 14:42:00,
2013-07-11 08:47:00,80.2,63.7,29.72,NW,304,0.0,0.0,57,0.00,,,0.00,meteohub,2013-07-11 14:47:00,
2013-07-11 08:52:00,81.0,63.3,29.72,NW,304,0.0,0.0,55,0.00,,,0.00,meteohub,2013-07-11 14:52:00,
2013-07-11 08:59:00,81.7,63.9,29.72,NW,304,0.0,0.0,55,0.00,,,0.00,meteohub,2013-07-11 14:59:00,
2013-07-11 09:04:00,82.0,63.7,29.72,West,269,0.0,0.0,54,0.00,,,0.00,meteohub,2013-07-11 15:04:00,
2013-07-11 09:09:00,82.6,63.7,29.72,West,269,0.0,0.0,53,0.00,,,0.00,meteohub,2013-07-11 15:09:00,
2013-07-11 09:15:00,83.3,63.9,29.72,West,270,0.0,0.0,52,0.00,,,0.00,meteohub,2013-07-11 15:15:00,
2013-07-11 09:20:00,83.8,63.9,29.72,West,273,0.0,0.0,51,0.00,,,0.00,meteohub,2013-07-11 15:20:00,
2013-07-11 09:27:00,84.6,63.9,29.72,West,278,0.0,0.0,50,0.00,,,0.00,meteohub,2013-07-11 15:27:00,
2013-07-11 09:32:00,83.8,63.1,29.72,West,276,0.0,0.0,50,0.00,,,0.00,meteohub,2013-07-11 15:32:00,
2013-07-11 09:37:00,83.7,63.7,29.71,West,277,0.0,0.0,51,0.00,,,0.00,meteohub,2013-07-11 15:37:00,
2013-07-11 09:42:00,83.8,64.4,29.71,West,277,0.0,0.0,52,0.00,,,0.00,meteohub,2013-07-11 15:42:00,
2013-07-11 09:47:00,84.2,63.0,29.71,West,262,0.0,0.0,49,0.00,,,0.00,meteohub,2013-07-11 15:47:00,
2013-07-11 09:52:00,84.0,62.2,29.71,West,265,0.0,0.0,48,0.00,,,0.00,meteohub,2013-07-11 15:52:00,
2013-07-11 09:59:00,84.4,63.1,29.71,West,263,0.0,0.0,49,0.00,,,0.00,meteohub,2013-07-11 15:59:00,
2013-07-11 10:04:00,84.6,62.8,29.71,West,262,0.0,0.0,48,0.00,,,0.00,meteohub,2013-07-11 16:04:00,
2013-07-11 10:11:00,85.3,62.2,29.71,WSW,257,0.0,0.0,46,0.00,,,0.00,meteohub,2013-07-11 16:11:00,
2013-07-11 10:17:00,85.5,63.0,29.70,West,261,0.0,0.0,47,0.00,,,0.00,meteohub,2013-07-11 16:17:00,
2013-07-11 10:22:00,85.6,63.1,29.70,West,263,0.0,0.0,47,0.00,,,0.00,meteohub,2013-07-11 16:22:00,
2013-07-11 10:27:00,86.5,63.3,29.70,West,265,0.0,0.0,46,0.00,,,0.00,meteohub,2013-07-11 16:27:00,
2013-07-11 10:32:00,86.9,61.7,29.70,West,274,0.0,0.0,43,0.00,,,0.00,meteohub,2013-07-11 16:32:00,
2013-07-11 10:37:00,87.3,62.1,29.70,West,264,0.0,0.0,43,0.00,,,0.00,meteohub,2013-07-11 16:37:00,
2013-07-11 10:44:00,87.1,62.6,29.70,West,264,0.0,0.0,44,0.00,,,0.00,meteohub,2013-07-11 16:44:00,
2013-07-11 10:49:00,87.4,62.2,29.70,West,263,0.0,0.0,43,0.00,,,0.00,meteohub,2013-07-11 16:49:00,
2013-07-11 10:55:00,87.4,61.5,29.70,West,274,0.0,0.0,42,0.00,,,0.00,meteohub,2013-07-11 16:55:00,
2013-07-11 11:00:00,87.4,62.2,29.69,West,274,0.0,0.0,43,0.00,,,0.00,meteohub,2013-07-11 17:00:00,
2013-07-11 11:05:00,87.8,62.6,29.69,West,261,0.0,0.0,43,0.00,,,0.00,meteohub,2013-07-11 17:05:00,
2013-07-11 11:10:00,88.0,62.1,29.69,West,262,0.0,0.0,42,0.00,,,0.00,meteohub,2013-07-11 17:10:00,
2013-07-11 11:17:00,88.3,62.4,29.69,West,264,0.0,0.0,42,0.00,,,0.00,meteohub,2013-07-11 17:17:00,
2013-07-11 11:22:00,88.3,63.0,29.69,West,267,0.0,0.0,43,0.00,,,0.00,meteohub,2013-07-11 17:22:00,
2013-07-11 11:27:00,88.3,62.4,29.69,West,271,0.0,0.0,42,0.00,,,0.00,meteohub,2013-07-11 17:27:00,
2013-07-11 11:32:00,88.5,62.4,29.68,West,263,0.0,0.0,42,0.00,,,0.00,meteohub,2013-07-11 17:32:00,
2013-07-11 11:37:00,88.5,61.9,29.68,West,270,0.0,0.0,41,0.00,,,0.00,meteohub,2013-07-11 17:37:00,
2013-07-11 11:43:00,88.5,62.4,29.68,West,265,0.0,0.0,42,0.00,,,0.00,meteohub,2013-07-11 17:43:00,
2013-07-11 11:50:00,88.2,62.2,29.68,West,265,0.0,0.0,42,0.00,,,0.00,meteohub,2013-07-11 17:50:00,
2013-07-11 11:57:00,88.3,63.0,29.68,West,267,0.0,0.0,43,0.00,,,0.00,meteohub,2013-07-11 17:57:00,
2013-07-11 12:02:00,88.5,61.9,29.68,West,267,0.0,0.0,41,0.00,,,0.00,meteohub,2013-07-11 18:02:00,
2013-07-11 12:10:00,89.1,62.2,29.68,West,266,0.0,0.0,41,0.00,,,0.00,meteohub,2013-07-11 18:10:00,
2013-07-11 12:17:00,89.8,60.8,29.68,West,267,0.0,0.0,38,0.00,,,0.00,meteohub,2013-07-11 18:17:00,
2013-07-11 12:22:00,90.7,60.8,29.68,West,263,0.0,0.0,37,0.00,,,0.00,meteohub,2013-07-11 18:22:00,
2013-07-11 12:27:00,91.8,63.3,29.67,West,263,0.0,0.0,39,0.00,,,0.00,meteohub,2013-07-11 18:27:00,
2013-07-11 12:32:00,93.0,61.3,29.67,West,263,0.0,0.0,35,0.00,,,0.00,meteohub,2013-07-11 18:32:00,
2013-07-11 12:37:00,94.3,60.8,29.67,West,260,0.0,0.0,33,0.00,,,0.00,meteohub,2013-07-11 18:37:00,
2013-07-11 12:42:00,94.8,61.2,29.67,WSW,257,0.0,0.0,33,0.00,,,0.00,meteohub,2013-07-11 18:42:00,
2013-07-11 12:47:00,94.3,59.9,29.66,WSW,258,0.0,0.0,32,0.00,,,0.00,meteohub,2013-07-11 18:47:00,
2013-07-11 12:52:00,94.6,60.3,29.66,WSW,257,0.0,0.0,32,0.00,,,0.00,meteohub,2013-07-11 18:52:00,
2013-07-11 12:57:00,95.4,60.8,29.66,ESE,110,0.0,0.0,32,0.00,,,0.00,meteohub,2013-07-11 18:57:00,
2013-07-11 13:02:00,95.5,62.8,29.66,SW,236,0.0,0.0,34,0.00,,,0.00,meteohub,2013-07-11 19:02:00,
2013-07-11 13:08:00,94.6,61.0,29.66,WSW,244,0.0,0.0,33,0.00,,,0.00,meteohub,2013-07-11 19:08:00,
2013-07-11 13:13:00,94.1,60.6,29.66,WSW,253,0.0,0.0,33,0.00,,,0.00,meteohub,2013-07-11 19:13:00,
2013-07-11 13:19:00,93.9,60.4,29.65,West,268,0.0,0.0,33,0.00,,,0.00,meteohub,2013-07-11 19:19:00,
2013-07-11 13:25:00,93.9,59.5,29.65,West,268,0.0,0.0,32,0.00,,,0.00,meteohub,2013-07-11 19:25:00,
2013-07-11 13:35:00,95.4,59.0,29.65,East,79,0.0,0.0,30,0.00,,,0.00,meteohub,2013-07-11 19:35:00,
2013-07-11 13:40:00,96.6,60.1,29.64,SSW,211,0.0,0.0,30,0.00,,,0.00,meteohub,2013-07-11 19:40:00,
2013-07-11 13:45:00,97.0,59.4,29.64,West,275,0.0,0.0,29,0.00,,,0.00,meteohub,2013-07-11 19:45:00,
2013-07-11 13:50:00,96.6,57.2,29.64,ESE,116,0.0,0.0,27,0.00,,,0.00,meteohub,2013-07-11 19:50:00,
2013-07-11 13:56:00,96.8,58.3,29.64,SE,127,0.0,0.0,28,0.00,,,0.00,meteohub,2013-07-11 19:56:00,
2013-07-11 14:01:00,97.2,57.6,29.63,ESE,115,0.0,0.0,27,0.00,,,0.00,meteohub,2013-07-11 20:01:00,
2013-07-11 14:07:00,97.9,58.3,29.63,East,89,0.0,0.0,27,0.00,,,0.00,meteohub,2013-07-11 20:07:00,
2013-07-11 14:12:00,98.1,58.5,29.64,SSW,207,0.0,0.0,27,0.00,,,0.00,meteohub,2013-07-11 20:12:00,
2013-07-11 14:17:00,97.3,57.7,29.63,SSW,205,0.0,0.0,27,0.00,,,0.00,meteohub,2013-07-11 20:17:00,
2013-07-11 14:22:00,97.2,57.6,29.63,SSW,213,0.0,0.0,27,0.00,,,0.00,meteohub,2013-07-11 20:22:00,
2013-07-11 14:30:00,97.2,58.6,29.63,SSW,197,0.0,0.0,28,0.00,,,0.00,meteohub,2013-07-11 20:30:00,
2013-07-11 14:37:00,97.3,57.7,29.62,South,189,0.0,0.0,27,0.00,,,0.00,meteohub,2013-07-11 20:37:00,
2013-07-11 14:42:00,97.2,57.6,29.62,SSW,212,0.0,0.0,27,0.00,,,0.00,meteohub,2013-07-11 20:42:00,
2013-07-11 14:47:00,97.3,56.7,29.62,SW,234,0.0,0.0,26,0.00,,,0.00,meteohub,2013-07-11 20:47:00,
2013-07-11 14:53:00,97.7,58.1,29.61,SSW,213,0.0,0.0,27,0.00,,,0.00,meteohub,2013-07-11 20:53:00,
2013-07-11 14:58:00,98.2,57.6,29.61,SW,219,0.0,0.0,26,0.00,,,0.00,meteohub,2013-07-11 20:58:00,
2013-07-11 15:05:00,98.2,59.5,29.61,West,263,0.0,0.0,28,0.00,,,0.00,meteohub,2013-07-11 21:05:00,
2013-07-11 15:12:00,97.5,57.9,29.61,ENE,67,0.0,0.0,27,0.00,,,0.00,meteohub,2013-07-11 21:12:00,
2013-07-11 15:17:00,97.9,58.3,29.60,South,180,0.0,0.0,27,0.00,,,0.00,meteohub,2013-07-11 21:17:00,
2013-07-11 15:22:00,98.1,59.4,29.60,SW,230,0.0,0.0,28,0.00,,,0.00,meteohub,2013-07-11 21:22:00,
2013-07-11 15:27:00,97.9,59.2,29.60,South,188,0.0,0.0,28,0.00,,,0.00,meteohub,2013-07-11 21:27:00,
2013-07-11 15:32:00,97.9,58.3,29.60,SSW,207,0.0,0.0,27,0.00,,,0.00,meteohub,2013-07-11 21:32:00,
2013-07-11 15:37:00,97.5,55.8,29.60,WSW,242,0.0,0.0,25,0.00,,,0.00,meteohub,2013-07-11 21:37:00,
2013-07-11 15:44:00,97.5,54.7,29.60,West,265,0.0,0.0,24,0.00,,,0.00,meteohub,2013-07-11 21:44:00,
2013-07-11 15:49:00,96.3,56.8,29.60,SW,227,0.0,0.0,27,0.00,,,0.00,meteohub,2013-07-11 21:49:00,
2013-07-11 15:54:00,95.7,57.4,29.59,SW,226,0.0,0.0,28,0.00,,,0.00,meteohub,2013-07-11 21:54:00,
2013-07-11 16:01:00,95.7,54.3,29.59,SSW,204,0.0,0.0,25,0.00,,,0.00,meteohub,2013-07-11 22:01:00,
2013-07-11 16:07:00,95.4,55.0,29.59,SSW,212,0.0,0.0,26,0.00,,,0.00,meteohub,2013-07-11 22:07:00,
2013-07-11 16:12:00,95.4,56.1,29.59,SSW,211,0.0,0.0,27,0.00,,,0.00,meteohub,2013-07-11 22:12:00,
2013-07-11 16:18:00,95.4,55.0,29.60,SSW,204,0.0,0.0,26,0.00,,,0.00,meteohub,2013-07-11 22:18:00,
2013-07-11 16:23:00,95.4,55.0,29.60,South,184,0.0,0.0,26,0.00,,,0.00,meteohub,2013-07-11 22:23:00,
2013-07-11 16:28:00,95.5,53.1,29.60,South,191,0.0,0.0,24,0.00,,,0.00,meteohub,2013-07-11 22:28:00,
2013-07-11 16:34:00,95.5,54.1,29.60,South,187,0.0,0.0,25,0.00,,,0.00,meteohub,2013-07-11 22:34:00,
2013-07-11 16:39:00,95.5,54.1,29.60,South,187,0.0,0.0,25,0.00,,,0.00,meteohub,2013-07-11 22:39:00,
2013-07-11 16:46:00,95.4,55.0,29.59,South,188,0.0,0.0,26,0.00,,,0.00,meteohub,2013-07-11 22:46:00,
2013-07-11 16:51:00,95.4,52.9,29.59,South,180,0.0,0.0,24,0.00,,,0.00,meteohub,2013-07-11 22:51:00,
2013-07-11 16:58:00,95.2,54.9,29.59,South,184,0.0,0.0,26,0.00,,,0.00,meteohub,2013-07-11 22:58:00,
2013-07-11 17:03:00,93.9,58.6,29.58,WSW,244,0.0,0.0,31,0.00,,,0.00,meteohub,2013-07-11 23:03:00,
2013-07-11 17:08:00,93.4,59.2,29.58,WSW,249,0.0,0.0,32,0.00,,,0.00,meteohub,2013-07-11 23:08:00,
2013-07-11 17:14:00,92.7,58.5,29.59,WSW,253,0.0,0.0,32,0.00,,,0.00,meteohub,2013-07-11 23:14:00,
2013-07-11 17:20:00,92.5,58.3,29.58,WSW,253,0.0,0.0,32,0.00,,,0.00,meteohub,2013-07-11 23:20:00,
2013-07-11 17:25:00,92.1,58.1,29.60,East,98,0.0,0.0,32,0.00,,,0.00,meteohub,2013-07-11 23:25:00,
2013-07-11 17:31:00,92.1,58.8,29.60,ESE,122,0.0,0.0,33,0.00,,,0.00,meteohub,2013-07-11 23:31:00,
2013-07-11 17:36:00,90.9,59.4,29.60,East,94,0.0,0.0,35,0.00,,,0.00,meteohub,2013-07-11 23:36:00,
2013-07-11 17:43:00,90.3,59.0,29.60,ESE,111,0.0,0.0,35,0.00,,,0.00,meteohub,2013-07-11 23:43:00,
2013-07-11 17:50:00,90.0,58.6,29.60,SE,140,0.0,0.0,35,0.00,,,0.00,meteohub,2013-07-11 23:50:00,
2013-07-11 17:57:00,89.1,59.4,29.60,West,278,0.0,0.0,37,0.00,,,0.00,meteohub,2013-07-11 23:57:00,
2013-07-11 18:03:00,88.5,59.0,29.60,West,265,0.0,0.0,37,0.00,,,0.00,meteohub,2013-07-12 00:03:00,
2013-07-11 18:08:00,88.3,59.5,29.60,SW,225,0.0,0.0,38,0.00,,,0.00,meteohub,2013-07-12 00:08:00,
2013-07-11 18:17:00,88.5,59.0,29.60,ENE,76,0.0,0.0,37,0.00,,,0.00,meteohub,2013-07-12 00:17:00,
2013-07-11 18:22:00,88.7,59.0,29.60,East,85,0.0,0.0,37,0.00,,,0.00,meteohub,2013-07-12 00:22:00,
2013-07-11 18:27:00,88.7,59.0,29.60,East,85,0.0,0.0,37,0.00,,,0.00,meteohub,2013-07-12 00:27:00,
2013-07-11 18:35:00,88.9,59.2,29.60,SE,125,0.0,0.0,37,0.00,,,0.00,meteohub,2013-07-12 00:35:00,
2013-07-11 18:42:00,89.1,60.8,29.60,ESE,105,0.0,0.0,39,0.00,,,0.00,meteohub,2013-07-12 00:42:00,
2013-07-11 18:47:00,88.9,60.8,29.60,ESE,105,0.0,0.0,39,0.00,,,0.00,meteohub,2013-07-12 00:47:00,
2013-07-11 18:52:00,88.7,62.1,29.60,SE,132,0.0,0.0,41,0.00,,,0.00,meteohub,2013-07-12 00:52:00,
2013-07-11 18:57:00,88.5,61.2,29.60,SE,132,0.0,0.0,40,0.00,,,0.00,meteohub,2013-07-12 00:57:00,
2013-07-11 19:02:00,88.3,61.0,29.59,SE,132,0.0,0.0,40,0.00,,,0.00,meteohub,2013-07-12 01:02:00,
2013-07-11 19:07:00,88.3,61.0,29.59,SE,132,0.0,0.0,40,0.00,,,0.00,meteohub,2013-07-12 01:07:00,
2013-07-11 19:12:00,88.2,60.8,29.59,SE,132,0.0,0.0,40,0.00,,,0.00,meteohub,2013-07-12 01:12:00,
2013-07-11 19:17:00,88.2,60.1,29.59,SE,132,0.0,0.0,39,0.00,,,0.00,meteohub,2013-07-12 01:17:00,
2013-07-11 19:22:00,88.2,60.8,29.59,SE,132,0.0,0.0,40,0.00,,,0.00,meteohub,2013-07-12 01:22:00,
2013-07-11 19:28:00,88.2,58.6,29.60,East,82,0.0,0.0,37,0.00,,,0.00,meteohub,2013-07-12 01:28:00,
2013-07-11 19:33:00,88.5,58.1,29.59,ESE,103,0.0,0.0,36,0.00,,,0.00,meteohub,2013-07-12 01:33:00,
2013-07-11 19:39:00,88.9,58.5,29.59,East,96,0.0,0.0,36,0.00,,,0.00,meteohub,2013-07-12 01:39:00,
2013-07-11 19:45:00,89.1,58.6,29.59,East,98,0.0,0.0,36,0.00,,,0.00,meteohub,2013-07-12 01:45:00,
2013-07-11 19:51:00,89.1,58.6,29.60,East,98,0.0,0.0,36,0.00,,,0.00,meteohub,2013-07-12 01:51:00,
2013-07-11 19:56:00,88.9,58.5,29.60,East,98,0.0,0.0,36,0.00,,,0.00,meteohub,2013-07-12 01:56:00,
2013-07-11 20:02:00,88.7,58.3,29.60,East,98,0.0,0.0,36,0.00,,,0.00,meteohub,2013-07-12 02:02:00,
2013-07-11 20:07:00,88.5,58.1,29.60,East,98,0.0,0.0,36,0.00,,,0.00,meteohub,2013-07-12 02:07:00,
2013-07-11 20:12:00,88.5,58.1,29.60,East,98,0.0,0.0,36,0.00,,,0.00,meteohub,2013-07-12 02:12:00,
2013-07-11 20:17:00,88.3,57.9,29.60,East,98,0.0,0.0,36,0.00,,,0.00,meteohub,2013-07-12 02:17:00,
2013-07-11 20:22:00,88.3,57.9,29.60,East,98,0.0,0.0,36,0.00,,,0.00,meteohub,2013-07-12 02:22:00,
2013-07-11 20:28:00,88.3,58.8,29.60,East,98,0.0,0.0,37,0.00,,,0.00,meteohub,2013-07-12 02:28:00,
2013-07-11 20:34:00,87.8,59.0,29.60,East,98,0.0,0.0,38,0.00,,,0.00,meteohub,2013-07-12 02:34:00,
2013-07-11 20:40:00,87.6,58.1,29.60,East,98,0.0,0.0,37,0.00,,,0.00,meteohub,2013-07-12 02:40:00,
2013-07-11 20:45:00,87.4,58.6,29.60,East,98,0.0,0.0,38,0.00,,,0.00,meteohub,2013-07-12 02:45:00,
2013-07-11 20:50:00,87.1,59.2,29.60,East,98,0.0,0.0,39,0.00,,,0.00,meteohub,2013-07-12 02:50:00,
2013-07-11 20:56:00,86.5,59.4,29.60,East,98,0.0,0.0,40,0.00,,,0.00,meteohub,2013-07-12 02:56:00,
2013-07-11 21:01:00,86.5,58.6,29.60,East,98,0.0,0.0,39,0.00,,,0.00,meteohub,2013-07-12 03:01:00,
2013-07-11 21:06:00,86.4,58.5,29.60,East,98,0.0,0.0,39,0.00,,,0.00,meteohub,2013-07-12 03:06:00,
2013-07-11 21:11:00,86.4,59.2,29.61,East,98,0.0,0.0,40,0.00,,,0.00,meteohub,2013-07-12 03:11:00,
2013-07-11 21:16:00,86.4,59.2,29.61,East,98,0.0,0.0,40,0.00,,,0.00,meteohub,2013-07-12 03:16:00,
2013-07-11 21:21:00,86.2,59.0,29.61,East,98,0.0,0.0,40,0.00,,,0.00,meteohub,2013-07-12 03:21:00,
2013-07-11 21:27:00,85.8,58.6,29.61,East,98,0.0,0.0,40,0.00,,,0.00,meteohub,2013-07-12 03:27:00,
2013-07-11 21:32:00,85.8,59.4,29.61,East,98,0.0,0.0,41,0.00,,,0.00,meteohub,2013-07-12 03:32:00,
2013-07-11 21:37:00,85.6,59.2,29.61,East,98,0.0,0.0,41,0.00,,,0.00,meteohub,2013-07-12 03:37:00,
2013-07-11 21:42:00,85.3,60.3,29.61,East,98,0.0,0.0,43,0.00,,,0.00,meteohub,2013-07-12 03:42:00,
2013-07-11 21:48:00,85.1,60.1,29.61,East,98,0.0,0.0,43,0.00,,,0.00,meteohub,2013-07-12 03:48:00,
2013-07-11 21:53:00,84.7,60.4,29.62,East,98,0.0,0.0,44,0.00,,,0.00,meteohub,2013-07-12 03:53:00,
2013-07-11 21:58:00,84.0,59.7,29.62,East,98,0.0,0.0,44,0.00,,,0.00,meteohub,2013-07-12 03:58:00,
2013-07-11 22:01:00,83.8,58.3,29.62,East,98,0.0,0.0,42,0.00,,,0.00,meteohub,2013-07-12 04:01:00,
2013-07-11 22:02:00,83.8,58.3,29.62,East,98,0.0,0.0,42,0.00,,,0.00,meteohub,2013-07-12 04:02:00,
2013-07-11 22:03:00,83.8,58.3,29.62,East,98,0.0,0.0,42,0.00,,,0.00,meteohub,2013-07-12 04:03:00,
2013-07-11 22:08:00,84.0,57.0,29.62,East,98,0.0,0.0,40,0.00,,,0.00,meteohub,2013-07-12 04:08:00,
2013-07-11 22:11:00,84.6,57.6,29.62,East,98,0.0,0.0,40,0.00,,,0.00,meteohub,2013-07-12 04:11:00,
2013-07-11 22:16:00,85.5,57.7,29.62,East,96,0.0,0.0,39,0.00,,,0.00,meteohub,2013-07-12 04:16:00,
2013-07-11 22:21:00,86.2,57.6,29.62,East,81,0.0,0.0,38,0.00,,,0.00,meteohub,2013-07-12 04:21:00,
2013-07-11 22:26:00,86.5,57.9,29.62,East,84,0.0,0.0,38,0.00,,,0.00,meteohub,2013-07-12 04:26:00,
2013-07-11 22:32:00,86.5,57.2,29.62,East,86,0.0,0.0,37,0.00,,,0.00,meteohub,2013-07-12 04:32:00,
2013-07-11 22:37:00,86.7,57.4,29.62,East,84,0.0,0.0,37,0.00,,,0.00,meteohub,2013-07-12 04:37:00,
2013-07-11 22:42:00,86.5,57.2,29.62,East,84,0.0,0.0,37,0.00,,,0.00,meteohub,2013-07-12 04:42:00,
2013-07-11 22:47:00,86.5,57.2,29.62,ENE,77,0.0,0.0,37,0.00,,,0.00,meteohub,2013-07-12 04:47:00,
2013-07-11 22:52:00,86.5,57.2,29.62,East,80,0.0,0.0,37,0.00,,,0.00,meteohub,2013-07-12 04:52:00,
2013-07-11 22:57:00,86.4,57.7,29.62,East,82,0.0,0.0,38,0.00,,,0.00,meteohub,2013-07-12 04:57:00,
2013-07-11 23:02:00,85.8,57.9,29.62,East,82,0.0,0.0,39,0.00,,,0.00,meteohub,2013-07-12 05:02:00,
2013-07-11 23:07:00,85.5,57.7,29.63,East,82,0.0,0.0,39,0.00,,,0.00,meteohub,2013-07-12 05:07:00,
2013-07-11 23:12:00,84.9,58.6,29.63,East,82,0.0,0.0,41,0.00,,,0.00,meteohub,2013-07-12 05:12:00,
2013-07-11 23:17:00,84.6,59.0,29.62,East,82,0.0,0.0,42,0.00,,,0.00,meteohub,2013-07-12 05:17:00,
2013-07-11 23:22:00,84.0,59.2,29.63,East,82,0.0,0.0,43,0.00,,,0.00,meteohub,2013-07-12 05:22:00,
2013-07-11 23:28:00,83.5,58.6,29.62,East,82,0.0,0.0,43,0.00,,,0.00,meteohub,2013-07-12 05:28:00,
2013-07-11 23:33:00,82.9,59.4,29.62,East,82,0.0,0.0,45,0.00,,,0.00,meteohub,2013-07-12 05:33:00,
2013-07-11 23:38:00,82.6,59.7,29.62,East,82,0.0,0.0,46,0.00,,,0.00,meteohub,2013-07-12 05:38:00,
2013-07-11 23:43:00,82.0,59.9,29.62,East,82,0.0,0.0,47,0.00,,,0.00,meteohub,2013-07-12 05:43:00,
2013-07-11 23:48:00,81.9,60.3,29.63,East,82,0.0,0.0,48,0.00,,,0.00,meteohub,2013-07-12 05:48:00,
2013-07-11 23:53:00,81.5,59.9,29.62,East,82,0.0,0.0,48,0.00,,,0.00,meteohub,2013-07-12 05:53:00,
2013-07-11 23:58:00,81.1,60.1,29.63,East,82,0.0,0.0,49,0.00,,,0.00,meteohub,2013-07-12 05:58:00,